createdAt,value
2023-03-21T00:00:11.311Z,61.65
2023-03-21T00:01:13.957Z,67.97
2023-03-21T00:02:15.880Z,57.61
2023-03-21T00:03:18.477Z,61.77
2023-03-21T00:04:27.091Z,57.41
2023-03-21T00:05:29.643Z,64.26
2023-03-21T00:06:31.962Z,64.93
2023-03-21T00:07:33.861Z,60.13
2023-03-21T00:08:36.456Z,60.94
2023-03-21T00:09:38.996Z,64.21
2023-03-21T00:10:43.898Z,61.29
2023-03-21T00:11:45.952Z,62.68
2023-03-21T00:12:48.283Z,62.63
2023-03-21T00:13:50.291Z,68.45
2023-03-21T00:14:53.660Z,61.31
2023-03-21T00:16:20.098Z,65.21
2023-03-21T00:17:00.249Z,67.18
2023-03-21T00:18:02.452Z,65.11
2023-03-21T00:19:05.034Z,72.91
2023-03-21T00:20:09.542Z,67.23
2023-03-21T00:23:27.692Z,68.73
2023-03-21T00:24:29.761Z,70.88
2023-03-21T00:25:32.528Z,64.45
2023-03-21T00:26:34.741Z,74.92
2023-03-21T00:27:56.860Z,71.36
2023-03-21T00:28:42.775Z,69.30
2023-03-21T00:29:45.362Z,70.75
2023-03-21T00:30:47.961Z,68.43
2023-03-21T00:31:49.979Z,68.99
2023-03-21T00:32:56.425Z,61.69
2023-03-21T00:33:56.249Z,67.74
2023-03-21T00:35:13.951Z,65.09
2023-03-21T00:36:12.590Z,64.50
2023-03-21T00:37:06.584Z,63.96
2023-03-21T00:38:10.017Z,56.91
2023-03-21T00:39:12.287Z,66.25
2023-03-21T00:40:26.649Z,64.29
2023-03-21T00:41:31.708Z,66.16
2023-03-21T00:42:22.319Z,58.62
2023-03-21T00:43:25.081Z,62.26
2023-03-21T00:44:27.874Z,56.18
2023-03-21T00:45:30.005Z,55.35
2023-03-21T00:46:42.819Z,58.81
2023-03-21T00:47:36.549Z,58.82
2023-03-21T00:48:39.041Z,58.12
2023-03-21T00:49:40.932Z,59.24
2023-03-21T00:50:46.618Z,60.88
2023-03-21T00:51:48.568Z,62.82
2023-03-21T00:52:50.624Z,60.32
2023-03-21T00:53:56.040Z,62.25
2023-03-21T00:54:59.703Z,65.53
2023-03-21T00:56:01.783Z,63.60
2023-03-21T00:57:04.179Z,64.00
2023-03-21T00:58:07.393Z,61.67
2023-03-21T00:59:09.391Z,62.96
2023-03-21T01:00:14.072Z,59.85
2023-03-21T01:01:16.730Z,63.97
2023-03-21T01:02:20.205Z,69.46
2023-03-21T01:03:25.148Z,66.96
2023-03-21T01:04:26.922Z,61.81
2023-03-21T01:05:31.630Z,62.21
2023-03-21T01:06:36.921Z,64.37
2023-03-21T01:07:39.361Z,66.47
2023-03-21T01:08:58.114Z,72.57
2023-03-21T01:09:46.732Z,62.79
2023-03-21T01:10:50.689Z,58.72
2023-03-21T01:11:53.148Z,60.35
2023-03-21T01:12:56.306Z,62.12
2023-03-21T01:14:10.855Z,58.76
2023-03-21T01:15:02.543Z,61.91
2023-03-21T01:16:08.032Z,61.54
2023-03-21T01:17:10.146Z,68.76
2023-03-21T01:18:13.347Z,59.07
2023-03-21T01:19:25.640Z,53.43
2023-03-21T01:20:23.683Z,61.66
2023-03-21T01:21:27.194Z,69.01
2023-03-21T01:22:29.212Z,59.96
2023-03-21T01:23:31.361Z,68.69
2023-03-21T01:24:40.438Z,62.62
2023-03-21T01:25:40.181Z,63.61
2023-03-21T01:26:42.449Z,64.83
2023-03-21T01:27:45.241Z,67.13
2023-03-21T01:28:47.324Z,73.83
2023-03-21T01:29:49.348Z,71.99
2023-03-21T01:30:52.030Z,74.01
2023-03-21T01:31:54.046Z,82.14
2023-03-21T01:32:56.418Z,75.58
2023-03-21T01:33:59.604Z,75.57
2023-03-21T01:35:02.073Z,77.77
2023-03-21T01:36:12.774Z,76.33
2023-03-21T01:37:09.113Z,66.45
2023-03-21T01:38:11.953Z,70.53
2023-03-21T01:39:13.862Z,75.06
2023-03-21T01:40:19.542Z,70.98
2023-03-21T01:41:33.433Z,71.38
2023-03-21T01:42:29.037Z,79.19
2023-03-21T01:43:34.126Z,72.83
2023-03-21T01:44:58.329Z,80.43
2023-03-21T01:46:21.123Z,68.25
2023-03-21T01:47:24.292Z,67.82
2023-03-21T01:48:28.762Z,73.70
2023-03-21T01:49:37.213Z,72.25
2023-03-21T01:50:41.430Z,78.18
2023-03-21T01:53:06.122Z,74.88
2023-03-21T01:54:11.386Z,76.64
2023-03-21T01:55:14.524Z,68.33
2023-03-21T01:56:26.199Z,72.12
2023-03-21T01:58:35.620Z,68.56
2023-03-21T01:59:49.921Z,75.04
2023-03-21T02:00:53.109Z,76.91
2023-03-21T02:01:58.909Z,79.11
2023-03-21T02:03:13.783Z,73.38
2023-03-21T02:04:09.324Z,71.77
2023-03-21T02:05:12.834Z,76.82
2023-03-21T02:06:18.775Z,79.05
2023-03-21T02:07:29.526Z,76.95
2023-03-21T02:08:39.651Z,71.79
2023-03-21T02:09:40.680Z,75.91
2023-03-21T02:10:48.861Z,70.42
2023-03-21T02:11:51.587Z,70.23
2023-03-21T02:12:56.811Z,61.58
2023-03-21T02:14:06.134Z,69.67
2023-03-21T02:15:03.398Z,65.46
2023-03-21T02:16:18.923Z,64.62
2023-03-21T02:17:36.585Z,69.72
2023-03-21T02:18:57.771Z,69.01
2023-03-21T02:20:10.553Z,66.93
2023-03-21T02:21:39.416Z,72.49
2023-03-21T02:23:16.759Z,70.26
2023-03-21T02:25:01.223Z,64.40
2023-03-21T02:26:21.377Z,68.07
2023-03-21T02:27:25.302Z,66.72
2023-03-21T02:28:43.153Z,70.51
2023-03-21T02:30:03.473Z,70.53
2023-03-21T02:31:24.443Z,73.98
2023-03-21T02:32:53.288Z,65.14
2023-03-21T02:34:18.999Z,70.85
2023-03-21T02:35:41.530Z,70.20
2023-03-21T02:36:47.659Z,69.78
2023-03-21T02:38:00.171Z,65.42
2023-03-21T02:39:19.035Z,69.49
2023-03-21T02:40:44.821Z,65.24
2023-03-21T02:41:56.396Z,69.49
2023-03-21T02:44:21.079Z,75.85
2023-03-21T02:45:29.935Z,71.03
2023-03-21T02:51:19.207Z,68.95
2023-03-21T02:52:37.860Z,76.16
2023-03-21T02:53:35.488Z,80.20
2023-03-21T02:54:48.104Z,82.56
2023-03-21T02:55:47.034Z,74.51
2023-03-21T02:56:51.343Z,76.41
2023-03-21T02:57:56.678Z,71.96
2023-03-21T02:59:02.595Z,72.28
2023-03-21T03:00:15.812Z,69.83
2023-03-21T03:01:10.084Z,69.97
2023-03-21T03:02:12.783Z,68.14
2023-03-21T03:03:28.030Z,65.34
2023-03-21T03:04:23.953Z,67.94
2023-03-21T03:05:30.065Z,67.56
2023-03-21T03:06:39.026Z,72.66
2023-03-21T03:08:04.572Z,75.62
2023-03-21T03:09:25.086Z,72.77
2023-03-21T03:10:34.015Z,70.56
2023-03-21T03:11:38.972Z,70.84
2023-03-21T03:12:50.558Z,68.56
2023-03-21T03:15:25.807Z,75.36
2023-03-21T03:16:31.601Z,70.62
2023-03-21T03:17:55.726Z,71.97
2023-03-21T03:19:01.819Z,72.93
2023-03-21T03:20:26.866Z,82.27
2023-03-21T03:21:53.716Z,74.76
2023-03-21T03:23:09.076Z,76.07
2023-03-21T03:24:14.776Z,78.18
2023-03-21T03:25:29.800Z,82.37
2023-03-21T03:26:28.217Z,75.13
2023-03-21T03:27:37.995Z,74.53
2023-03-21T03:28:43.655Z,68.67
2023-03-21T03:29:48.292Z,73.99
2023-03-21T03:31:07.533Z,72.86
2023-03-21T03:32:00.717Z,74.96
2023-03-21T03:33:05.845Z,71.67
2023-03-21T03:34:11.631Z,67.62
2023-03-21T03:35:17.006Z,64.39
2023-03-21T03:36:31.483Z,65.12
2023-03-21T03:37:30.112Z,63.84
2023-03-21T03:38:35.697Z,66.13
2023-03-21T03:40:58.661Z,63.14
2023-03-21T03:42:21.704Z,69.94
2023-03-21T03:43:17.541Z,63.71
2023-03-21T03:44:22.013Z,64.14
2023-03-21T03:45:27.722Z,68.21
2023-03-21T03:46:34.585Z,67.13
2023-03-21T03:48:03.778Z,65.56
2023-03-21T03:50:32.983Z,76.38
2023-03-21T03:51:44.996Z,76.78
2023-03-21T03:52:57.436Z,77.13
2023-03-21T03:54:06.703Z,70.98
2023-03-21T03:55:12.538Z,68.74
2023-03-21T03:56:14.660Z,71.84
2023-03-21T03:57:17.308Z,75.81
2023-03-21T03:58:23.765Z,68.30
2023-03-21T03:59:25.253Z,64.42
2023-03-21T04:00:31.174Z,67.20
2023-03-21T04:01:34.570Z,67.13
2023-03-21T04:02:38.056Z,60.84
2023-03-21T04:03:50.774Z,61.09
2023-03-21T04:04:49.713Z,65.96
2023-03-21T04:05:51.616Z,59.82
2023-03-21T04:06:54.219Z,61.97
2023-03-21T04:07:56.119Z,61.92
2023-03-21T04:09:01.662Z,61.74
2023-03-21T04:10:04.743Z,66.91
2023-03-21T04:11:06.974Z,64.09
2023-03-21T04:12:08.845Z,63.23
2023-03-21T04:13:11.360Z,57.56
2023-03-21T04:14:13.707Z,61.47
2023-03-21T04:15:16.008Z,65.51
2023-03-21T04:16:18.669Z,66.22
2023-03-21T04:17:22.148Z,68.15
2023-03-21T04:18:24.504Z,64.73
2023-03-21T04:19:26.474Z,65.22
2023-03-21T04:20:36.675Z,64.53
2023-03-21T04:21:32.379Z,60.86
2023-03-21T04:22:34.248Z,56.62
2023-03-21T04:23:36.434Z,57.31
2023-03-21T04:24:39.052Z,55.51
2023-03-21T04:25:54.002Z,52.19
2023-03-21T04:26:44.865Z,51.38
2023-03-21T04:27:47.405Z,43.74
2023-03-21T04:28:51.312Z,52.86
2023-03-21T04:29:53.367Z,46.33
2023-03-21T04:31:03.717Z,52.65
2023-03-21T04:32:00.682Z,48.99
2023-03-21T04:33:02.870Z,45.79
2023-03-21T04:34:05.673Z,45.40
2023-03-21T04:35:09.197Z,49.67
2023-03-21T04:36:11.419Z,47.48
2023-03-21T04:37:13.370Z,47.32
2023-03-21T04:38:15.239Z,48.46
2023-03-21T04:39:17.307Z,56.27
2023-03-21T04:40:22.512Z,59.89
2023-03-21T04:41:24.613Z,59.96
2023-03-21T04:42:26.647Z,62.75
2023-03-21T04:43:28.664Z,79.59
2023-03-21T04:44:30.580Z,72.47
2023-03-21T04:45:32.607Z,62.21
2023-03-21T04:46:34.985Z,54.31
2023-03-21T04:47:38.140Z,54.53
2023-03-21T04:48:40.370Z,55.11
2023-03-21T04:49:43.067Z,60.94
2023-03-21T04:50:47.103Z,65.88
2023-03-21T04:51:49.135Z,74.56
2023-03-21T04:52:51.158Z,69.81
2023-03-21T04:53:55.397Z,68.31
2023-03-21T04:54:57.458Z,69.22
2023-03-21T04:56:01.783Z,72.37
2023-03-21T04:57:03.959Z,66.88
2023-03-21T04:58:06.065Z,65.37
2023-03-21T04:59:11.423Z,65.43
2023-03-21T05:00:14.988Z,70.36
2023-03-21T05:01:17.124Z,67.59
2023-03-21T05:02:19.070Z,68.50
2023-03-21T05:03:21.159Z,59.95
2023-03-21T05:04:24.870Z,60.79
2023-03-21T05:05:27.158Z,63.19
2023-03-21T05:06:30.880Z,62.84
2023-03-21T05:07:32.951Z,65.81
2023-03-21T05:08:36.133Z,63.04
2023-03-21T05:09:38.134Z,64.26
2023-03-21T05:10:42.480Z,68.01
2023-03-21T05:11:44.841Z,66.52
2023-03-21T05:12:46.737Z,71.87
2023-03-21T05:13:48.631Z,70.71
2023-03-21T05:14:50.953Z,67.73
2023-03-21T05:15:53.894Z,73.51
2023-03-21T05:16:56.599Z,86.12
2023-03-21T05:17:58.734Z,87.69
2023-03-21T05:19:02.913Z,87.89
2023-03-21T05:20:05.945Z,82.54
2023-03-21T05:21:08.584Z,79.96
2023-03-21T05:22:14.546Z,84.38
2023-03-21T05:23:16.502Z,82.56
2023-03-21T05:24:20.829Z,84.56
2023-03-21T05:25:22.850Z,87.92
2023-03-21T05:26:25.531Z,80.78
2023-03-21T05:27:27.453Z,84.15
2023-03-21T05:28:29.342Z,75.57
2023-03-21T05:29:32.839Z,82.13
2023-03-21T05:30:35.077Z,83.12
2023-03-21T05:31:37.234Z,75.08
2023-03-21T05:32:39.977Z,84.35
2023-03-21T05:33:43.190Z,98.94
2023-03-21T05:34:45.210Z,99.16
2023-03-21T05:35:50.134Z,85.83
2023-03-21T05:36:52.998Z,75.63
2023-03-21T05:37:55.109Z,87.61
2023-03-21T05:38:57.022Z,88.62
2023-03-21T05:39:59.031Z,82.08
2023-03-21T05:41:01.820Z,87.15
2023-03-21T05:42:06.862Z,86.03
2023-03-21T05:43:08.835Z,87.50
2023-03-21T05:44:12.813Z,81.45
2023-03-21T05:45:15.575Z,81.99
2023-03-21T05:46:18.838Z,92.39
2023-03-21T05:47:20.933Z,89.13
2023-03-21T05:48:23.011Z,84.39
2023-03-21T05:49:25.750Z,91.97
2023-03-21T05:50:27.910Z,88.20
2023-03-21T05:51:29.970Z,79.35
2023-03-21T05:52:34.369Z,84.30
2023-03-21T05:53:37.449Z,77.27
2023-03-21T05:54:39.504Z,77.53
2023-03-21T05:55:41.396Z,77.97
2023-03-21T05:56:43.763Z,75.75
2023-03-21T05:57:45.793Z,79.79
2023-03-21T05:58:47.809Z,79.09
2023-03-21T05:59:50.409Z,75.55
2023-03-21T06:00:53.143Z,78.43
2023-03-21T06:01:55.833Z,76.55
2023-03-21T06:02:57.771Z,71.34
2023-03-21T06:03:59.945Z,73.60
2023-03-21T06:05:02.003Z,67.29
2023-03-21T06:06:04.480Z,71.67
2023-03-21T06:07:07.443Z,69.66
2023-03-21T06:08:09.413Z,68.16
2023-03-21T06:09:11.819Z,68.53
2023-03-21T06:10:14.218Z,67.07
2023-03-21T06:11:25.800Z,67.55
2023-03-21T06:12:27.766Z,71.95
2023-03-21T06:13:29.657Z,64.63
2023-03-21T06:14:31.555Z,66.25
2023-03-21T06:15:34.239Z,64.59
2023-03-21T06:16:36.259Z,66.48
2023-03-21T06:17:38.355Z,62.77
2023-03-21T06:18:40.364Z,63.53
2023-03-21T06:19:42.331Z,64.73
2023-03-21T06:20:44.354Z,66.87
2023-03-21T06:21:46.679Z,60.39
2023-03-21T06:22:49.024Z,61.37
2023-03-21T06:23:50.927Z,61.75
2023-03-21T06:24:53.117Z,68.95
2023-03-21T06:25:55.002Z,59.93
2023-03-21T06:26:57.073Z,57.65
2023-03-21T06:27:59.064Z,55.41
2023-03-21T06:29:03.594Z,59.11
2023-03-21T06:30:06.970Z,58.99
2023-03-21T06:31:09.085Z,57.78
2023-03-21T06:32:12.425Z,60.89
2023-03-21T06:33:14.305Z,55.58
2023-03-21T06:34:17.465Z,55.85
2023-03-21T06:35:22.638Z,55.40
2023-03-21T06:36:24.810Z,53.61
2023-03-21T06:37:26.897Z,56.28
2023-03-21T06:38:28.804Z,53.30
2023-03-21T06:39:30.930Z,55.22
2023-03-21T06:40:33.418Z,53.94
2023-03-21T06:41:35.922Z,54.69
2023-03-21T06:42:37.832Z,57.63
2023-03-21T06:43:39.725Z,53.09
2023-03-21T06:44:41.627Z,53.51
2023-03-21T06:45:44.429Z,56.12
2023-03-21T06:46:46.571Z,52.43
2023-03-21T06:47:48.611Z,51.79
2023-03-21T06:48:50.644Z,50.87
2023-03-21T06:49:52.528Z,51.93
2023-03-21T06:50:55.175Z,55.54
2023-03-21T06:51:57.580Z,53.47
2023-03-21T06:53:00.051Z,54.50
2023-03-21T06:54:02.396Z,57.35
2023-03-21T06:55:05.566Z,55.06
2023-03-21T06:56:10.398Z,52.24
2023-03-21T06:57:12.308Z,56.86
2023-03-21T06:58:14.312Z,52.33
2023-03-21T06:59:17.156Z,50.82
2023-03-21T07:00:21.780Z,55.79
2023-03-21T07:01:23.939Z,47.02
2023-03-21T07:02:26.135Z,53.16
2023-03-21T07:03:28.624Z,52.61
2023-03-21T07:04:31.284Z,50.92
2023-03-21T07:05:36.884Z,53.47
2023-03-21T07:06:39.923Z,50.61
2023-03-21T07:07:42.134Z,48.07
2023-03-21T07:08:44.111Z,45.06
2023-03-21T07:09:45.981Z,49.79
2023-03-21T07:10:49.050Z,50.00
2023-03-21T07:11:50.953Z,50.95
2023-03-21T07:12:52.974Z,53.80
2023-03-21T07:13:54.872Z,53.07
2023-03-21T07:14:56.744Z,51.79
2023-03-21T07:16:00.223Z,55.84
2023-03-21T07:17:02.461Z,52.60
2023-03-21T07:18:05.342Z,54.41
2023-03-21T07:19:07.385Z,49.38
2023-03-21T07:20:11.365Z,53.97
2023-03-21T07:21:13.827Z,54.23
2023-03-21T07:22:15.900Z,54.95
2023-03-21T07:23:22.901Z,53.69
2023-03-21T07:24:25.951Z,53.82
2023-03-21T07:25:28.006Z,50.98
2023-03-21T07:26:30.216Z,52.37
2023-03-21T07:27:33.087Z,53.28
2023-03-21T07:28:36.157Z,51.05
2023-03-21T07:29:38.066Z,55.68
2023-03-21T07:30:40.497Z,53.36
2023-03-21T07:31:42.676Z,49.87
2023-03-21T07:32:44.965Z,47.88
2023-03-21T07:33:46.880Z,53.23
2023-03-21T07:34:48.772Z,49.02
2023-03-21T07:35:52.149Z,47.29
2023-03-21T07:36:55.573Z,50.94
2023-03-21T07:37:58.012Z,50.86
2023-03-21T07:39:00.103Z,53.18
2023-03-21T07:40:02.488Z,49.03
2023-03-21T07:41:06.717Z,49.14
2023-03-21T07:43:10.549Z,48.85
2023-03-21T07:44:12.607Z,51.46
2023-03-21T07:45:14.599Z,46.61
2023-03-21T07:46:18.490Z,50.40
2023-03-21T07:47:20.690Z,47.17
2023-03-21T07:48:22.893Z,48.22
2023-03-21T07:49:25.064Z,51.62
2023-03-21T07:50:27.944Z,47.52
2023-03-21T07:51:30.017Z,48.41
2023-03-21T07:52:32.488Z,48.49
2023-03-21T07:53:34.867Z,50.52
2023-03-21T07:54:36.751Z,48.32
2023-03-21T07:55:39.397Z,43.38
2023-03-21T07:56:41.841Z,46.19
2023-03-21T07:57:44.400Z,42.03
2023-03-21T07:58:47.705Z,39.93
2023-03-21T07:59:49.824Z,43.73
2023-03-21T08:00:52.689Z,42.54
2023-03-21T08:01:54.621Z,38.79
2023-03-21T08:02:59.024Z,36.27
2023-03-21T08:04:01.392Z,41.48
2023-03-21T08:05:04.172Z,43.69
2023-03-21T08:06:09.016Z,40.81
2023-03-21T08:07:11.590Z,36.77
2023-03-21T08:08:13.492Z,39.15
2023-03-21T08:09:15.762Z,34.44
2023-03-21T08:10:18.753Z,39.09
2023-03-21T08:11:20.651Z,42.61
2023-03-21T08:12:22.663Z,47.18
2023-03-21T08:13:24.571Z,35.63
2023-03-21T08:14:29.808Z,35.62
2023-03-21T08:15:31.837Z,40.94
2023-03-21T08:16:34.494Z,37.17
2023-03-21T08:17:36.572Z,34.43
2023-03-21T08:18:39.458Z,39.91
2023-03-21T08:19:41.372Z,33.63
2023-03-21T08:20:43.696Z,39.29
2023-03-21T08:21:46.074Z,36.71
2023-03-21T08:22:49.077Z,37.05
2023-03-21T08:23:53.479Z,34.04
2023-03-21T08:24:55.534Z,37.32
2023-03-21T08:25:57.561Z,38.25
2023-03-21T08:27:01.291Z,34.77
2023-03-21T08:28:03.840Z,37.41
2023-03-21T08:29:06.991Z,38.54
2023-03-21T08:30:11.673Z,36.44
2023-03-21T08:31:13.878Z,39.08
2023-03-21T08:32:18.630Z,33.93
2023-03-21T08:33:23.039Z,36.57
2023-03-21T08:34:25.164Z,31.96
2023-03-21T08:35:29.534Z,35.10
2023-03-21T08:36:31.931Z,32.71
2023-03-21T08:37:34.587Z,33.38
2023-03-21T08:38:36.470Z,36.05
2023-03-21T08:39:38.373Z,31.44
2023-03-21T08:40:40.692Z,33.47
2023-03-21T08:41:42.864Z,31.30
2023-03-21T08:42:45.140Z,30.70
2023-03-21T08:43:48.536Z,37.16
2023-03-21T08:44:50.509Z,31.44
2023-03-21T08:45:52.401Z,28.95
2023-03-21T08:46:55.384Z,33.20
2023-03-21T08:47:57.397Z,31.41
2023-03-21T08:48:59.530Z,28.16
2023-03-21T08:50:01.513Z,30.62
2023-03-21T08:51:03.786Z,33.98
2023-03-21T08:52:05.842Z,29.66
2023-03-21T08:53:07.773Z,34.01
2023-03-21T08:54:21.167Z,32.09
2023-03-21T08:55:23.107Z,34.54
2023-03-21T08:56:25.451Z,29.57
2023-03-21T08:57:28.169Z,30.46
2023-03-21T08:58:30.092Z,31.37
2023-03-21T08:59:32.324Z,30.47
2023-03-21T09:00:34.568Z,28.65
2023-03-21T09:01:36.634Z,32.56
2023-03-21T09:02:43.186Z,29.75
2023-03-21T09:03:45.230Z,33.68
2023-03-21T09:04:47.433Z,33.29
2023-03-21T09:05:52.473Z,27.39
2023-03-21T09:06:54.510Z,33.67
2023-03-21T09:08:48.504Z,28.89
2023-03-21T09:10:08.286Z,26.33
2023-03-21T09:10:56.450Z,28.86
2023-03-21T09:11:58.786Z,29.69
2023-03-21T09:13:00.807Z,29.29
2023-03-21T09:14:04.816Z,30.89
2023-03-21T09:15:08.859Z,29.18
2023-03-21T09:16:11.379Z,28.11
2023-03-21T09:17:13.340Z,30.00
2023-03-21T09:18:15.790Z,28.96
2023-03-21T09:19:17.794Z,26.96
2023-03-21T09:20:21.882Z,25.27
2023-03-21T09:21:25.093Z,25.72
2023-03-21T09:22:27.202Z,26.00
2023-03-21T09:23:29.224Z,29.56
2023-03-21T09:24:31.212Z,26.31
2023-03-21T09:25:33.119Z,25.75
2023-03-21T09:26:35.228Z,21.77
2023-03-21T09:27:37.429Z,27.34
2023-03-21T09:28:39.852Z,22.70
2023-03-21T09:29:41.870Z,23.42
2023-03-21T09:30:43.962Z,20.97
2023-03-21T09:31:47.169Z,20.47
2023-03-21T09:32:49.207Z,23.29
2023-03-21T09:33:54.905Z,28.07
2023-03-21T09:34:56.946Z,25.27
2023-03-21T09:35:58.972Z,21.76
2023-03-21T09:37:01.218Z,23.12
2023-03-21T09:38:03.113Z,24.66
2023-03-21T09:39:05.113Z,22.62
2023-03-21T09:41:40.150Z,23.33
2023-03-21T09:43:08.231Z,23.79
2023-03-21T09:44:28.846Z,26.11
2023-03-21T09:45:44.990Z,25.06
2023-03-21T09:47:01.818Z,26.43
2023-03-21T09:48:07.010Z,26.06
2023-03-21T09:49:24.630Z,28.46
2023-03-21T09:50:34.089Z,25.14
2023-03-21T09:51:39.911Z,26.71
2023-03-21T09:53:09.895Z,25.69
2023-03-21T09:54:36.702Z,27.01
2023-03-21T09:55:40.868Z,27.93
2023-03-21T09:56:45.722Z,29.55
2023-03-21T09:58:00.525Z,27.09
2023-03-21T09:59:04.658Z,26.15
2023-03-21T10:00:14.129Z,29.26
2023-03-21T10:01:19.109Z,28.27
2023-03-21T10:02:36.964Z,30.95
2023-03-21T10:03:39.359Z,28.11
2023-03-21T10:04:41.291Z,35.03
2023-03-21T10:05:46.170Z,34.21
2023-03-21T10:06:55.040Z,32.25
2023-03-21T10:08:09.647Z,26.18
2023-03-21T10:09:19.460Z,28.57
2023-03-21T10:10:28.789Z,33.09
2023-03-21T10:11:34.120Z,32.79
2023-03-21T10:12:36.060Z,35.17
2023-03-21T10:13:53.531Z,30.91
2023-03-21T10:14:58.202Z,32.51
2023-03-21T10:17:32.989Z,27.84
2023-03-21T10:18:37.404Z,32.47
2023-03-21T10:19:39.509Z,28.19
2023-03-21T10:20:42.135Z,26.97
2023-03-21T10:22:00.283Z,23.11
2023-03-21T10:22:54.495Z,28.37
2023-03-21T10:23:59.168Z,27.33
2023-03-21T10:25:01.212Z,27.03
2023-03-21T10:26:07.045Z,25.49
2023-03-21T10:27:11.145Z,26.56
2023-03-21T10:28:16.836Z,24.30
2023-03-21T10:29:22.696Z,25.42
2023-03-21T10:30:43.248Z,27.42
2023-03-21T10:31:46.856Z,25.73
2023-03-21T10:32:49.424Z,23.85
2023-03-21T10:33:53.675Z,26.78
2023-03-21T10:34:57.810Z,23.22
2023-03-21T10:36:03.627Z,24.31
2023-03-21T10:37:06.467Z,24.97
2023-03-21T10:38:12.150Z,25.61
2023-03-21T10:39:23.824Z,26.64
2023-03-21T10:40:26.051Z,29.04
2023-03-21T10:41:28.038Z,27.65
2023-03-21T10:42:32.148Z,26.76
2023-03-21T10:43:38.650Z,31.51
2023-03-21T10:44:44.444Z,30.64
2023-03-21T10:45:48.062Z,30.01
2023-03-21T10:47:00.306Z,30.11
2023-03-21T10:48:06.485Z,29.41
2023-03-21T10:49:08.692Z,27.03
2023-03-21T10:50:14.611Z,27.36
2023-03-21T10:51:21.337Z,30.32
2023-03-21T10:52:27.004Z,26.49
2023-03-21T10:53:33.174Z,31.67
2023-03-21T10:54:35.255Z,31.00
2023-03-21T10:55:40.320Z,28.30
2023-03-21T10:57:07.636Z,26.64
2023-03-21T10:58:16.419Z,31.00
2023-03-21T10:59:20.753Z,32.25
2023-03-21T11:00:26.571Z,29.28
2023-03-21T11:01:32.360Z,27.11
2023-03-21T11:02:37.125Z,27.78
2023-03-21T11:03:42.367Z,28.59
2023-03-21T11:04:44.794Z,27.82
2023-03-21T11:05:50.421Z,31.21
2023-03-21T11:06:56.195Z,32.47
2023-03-21T11:08:01.642Z,33.56
2023-03-21T11:09:18.276Z,36.02
2023-03-21T11:10:29.688Z,32.06
2023-03-21T11:11:40.806Z,36.03
2023-03-21T11:12:46.480Z,30.58
2023-03-21T11:14:00.855Z,26.65
2023-03-21T11:15:26.603Z,28.89
2023-03-21T11:16:44.565Z,30.50
2023-03-21T11:17:47.088Z,26.81
2023-03-21T11:18:51.156Z,26.83
2023-03-21T11:20:03.503Z,27.07
2023-03-21T11:22:10.849Z,23.90
2023-03-21T11:23:13.208Z,23.94
2023-03-21T11:24:19.171Z,26.25
2023-03-21T11:25:27.871Z,27.12
2023-03-21T11:26:34.116Z,25.05
2023-03-21T11:27:36.383Z,24.50
2023-03-21T11:28:41.156Z,25.42
2023-03-21T11:29:49.675Z,27.69
2023-03-21T11:30:58.673Z,26.42
2023-03-21T11:32:03.326Z,25.99
2023-03-21T11:33:06.356Z,26.49
2023-03-21T11:34:09.207Z,23.79
2023-03-21T11:35:19.686Z,25.27
2023-03-21T11:36:25.503Z,30.38
2023-03-21T11:37:43.163Z,24.63
2023-03-21T11:39:00.450Z,28.17
2023-03-21T11:40:21.330Z,26.11
2023-03-21T11:41:31.586Z,27.64
2023-03-21T11:42:46.207Z,24.57
2023-03-21T11:43:54.316Z,21.27
2023-03-21T11:45:15.423Z,25.99
2023-03-21T11:46:23.424Z,21.01
2023-03-21T11:47:25.646Z,18.42
2023-03-21T11:48:28.955Z,33.05
2023-03-21T11:49:33.169Z,21.97
2023-03-21T11:50:38.869Z,21.08
2023-03-21T11:51:59.947Z,22.49
2023-03-21T11:53:24.672Z,18.90
2023-03-21T11:54:47.160Z,22.78
2023-03-21T11:56:09.530Z,18.43
2023-03-21T11:57:15.511Z,19.03
2023-03-21T11:58:50.472Z,20.58
2023-03-21T12:00:05.306Z,24.08
2023-03-21T12:01:16.910Z,22.16
2023-03-21T12:02:34.907Z,18.32
2023-03-21T12:03:49.734Z,20.76
2023-03-21T12:04:56.193Z,21.62
2023-03-21T12:06:01.380Z,21.22
2023-03-21T12:07:16.270Z,21.43
2023-03-21T12:08:37.493Z,21.80
2023-03-21T12:09:58.689Z,19.36
2023-03-21T12:11:19.787Z,21.27
2023-03-21T12:12:52.761Z,24.16
2023-03-21T12:14:06.888Z,21.73
2023-03-21T12:15:31.015Z,26.91
2023-03-21T12:16:53.798Z,23.45
2023-03-21T12:18:02.590Z,26.92
2023-03-21T12:19:34.417Z,26.01
2023-03-21T12:20:43.301Z,24.14
2023-03-21T12:22:05.642Z,32.18
2023-03-21T12:23:14.489Z,25.26
2023-03-21T12:24:20.498Z,24.71
2023-03-21T12:25:26.249Z,25.74
2023-03-21T12:26:46.791Z,24.34
2023-03-21T12:28:02.908Z,34.10
2023-03-21T12:29:20.636Z,29.70
2023-03-21T12:30:35.632Z,23.96
2023-03-21T12:31:49.081Z,26.13
2023-03-21T12:33:01.212Z,25.87
2023-03-21T12:34:28.122Z,24.23
2023-03-21T12:35:58.452Z,27.19
2023-03-21T12:37:37.946Z,25.86
2023-03-21T12:38:52.939Z,24.07
2023-03-21T12:39:58.746Z,22.52
2023-03-21T12:41:04.759Z,26.78
2023-03-21T12:42:30.269Z,21.22
2023-03-21T12:43:42.032Z,25.42
2023-03-21T12:44:53.798Z,23.08
2023-03-21T12:45:59.497Z,20.72
2023-03-21T12:47:17.342Z,24.58
2023-03-21T12:48:25.812Z,25.43
2023-03-21T12:49:34.676Z,24.22
2023-03-21T12:50:39.294Z,28.63
2023-03-21T12:51:45.069Z,23.78
2023-03-21T12:52:50.751Z,23.03
2023-03-21T12:54:05.236Z,24.87
2023-03-21T12:56:38.536Z,21.14
2023-03-21T12:57:51.169Z,23.32
2023-03-21T12:58:58.061Z,25.79
2023-03-21T13:00:18.922Z,25.94
2023-03-21T13:01:22.388Z,25.65
2023-03-21T13:02:36.936Z,24.04
2023-03-21T13:03:42.071Z,26.98
2023-03-21T13:04:57.498Z,25.13
2023-03-21T13:06:05.708Z,24.56
2023-03-21T13:07:11.478Z,24.44
2023-03-21T13:08:29.135Z,23.18
2023-03-21T13:09:40.370Z,20.39
2023-03-21T13:10:45.954Z,17.58
2023-03-21T13:11:52.706Z,22.04
2023-03-21T13:13:15.295Z,28.34
2023-03-21T13:14:22.680Z,22.92
2023-03-21T13:15:42.942Z,24.09
2023-03-21T13:16:55.058Z,25.31
2023-03-21T13:18:03.768Z,19.62
2023-03-21T13:19:29.303Z,25.39
2023-03-21T13:20:53.611Z,24.21
2023-03-21T13:22:02.312Z,24.48
2023-03-21T13:23:04.493Z,24.67
2023-03-21T13:24:45.645Z,24.66
2023-03-21T13:25:50.170Z,26.17
2023-03-21T13:26:58.874Z,24.84
2023-03-21T13:28:03.487Z,22.89
2023-03-21T13:29:31.040Z,23.75
2023-03-21T13:30:33.195Z,25.67
2023-03-21T13:31:50.876Z,27.99
2023-03-21T13:32:43.860Z,23.61
2023-03-21T13:33:49.652Z,22.03
2023-03-21T13:34:58.308Z,21.30
2023-03-21T13:36:07.369Z,21.56
2023-03-21T13:37:18.233Z,23.48
2023-03-21T13:38:26.160Z,25.44
2023-03-21T13:39:29.385Z,22.66
2023-03-21T13:40:38.686Z,22.74
2023-03-21T13:41:44.296Z,25.90
2023-03-21T13:42:49.960Z,23.30
2023-03-21T13:43:54.721Z,24.21
2023-03-21T13:45:00.036Z,25.05
2023-03-21T13:46:27.369Z,24.92
2023-03-21T13:47:37.282Z,25.11
2023-03-21T13:48:56.255Z,23.11
2023-03-21T13:50:09.997Z,25.91
2023-03-21T13:51:12.178Z,20.30
2023-03-21T13:52:26.527Z,24.37
2023-03-21T13:53:41.769Z,20.61
2023-03-21T13:54:50.180Z,23.46
2023-03-21T13:56:01.690Z,27.24
2023-03-21T13:57:06.011Z,23.43
2023-03-21T13:58:23.810Z,21.35
2023-03-21T14:01:06.982Z,23.12
2023-03-21T14:02:30.802Z,19.94
2023-03-21T14:03:34.510Z,23.37
2023-03-21T14:04:42.670Z,24.92
2023-03-21T14:05:43.861Z,25.56
2023-03-21T14:06:52.649Z,20.56
2023-03-21T14:08:06.066Z,23.25
2023-03-21T14:09:04.272Z,21.71
2023-03-21T14:10:10.677Z,24.85
2023-03-21T14:11:18.619Z,19.92
2023-03-21T14:12:26.817Z,22.10
2023-03-21T14:13:29.821Z,21.02
2023-03-21T14:14:37.052Z,24.46
2023-03-21T14:15:55.849Z,21.40
2023-03-21T14:16:55.933Z,26.24
2023-03-21T14:18:03.398Z,23.32
2023-03-21T14:19:05.529Z,22.20
2023-03-21T14:20:29.637Z,25.09
2023-03-21T14:21:35.627Z,25.94
2023-03-21T14:22:40.511Z,27.26
2023-03-21T14:23:42.562Z,27.22
2023-03-21T14:25:01.538Z,25.91
2023-03-21T14:26:05.539Z,25.81
2023-03-21T14:27:08.154Z,21.72
2023-03-21T14:28:22.243Z,23.67
2023-03-21T14:29:33.339Z,24.15
2023-03-21T14:30:39.424Z,23.06
2023-03-21T14:31:45.276Z,23.19
2023-03-21T14:32:47.662Z,26.06
2023-03-21T14:33:53.034Z,23.67
2023-03-21T14:34:55.941Z,22.62
2023-03-21T14:37:12.199Z,24.02
2023-03-21T14:38:20.483Z,23.25